Time;durP1;ratioP1;P1;durP2;ratioP2;P2;SDS_P1;SDS_P2;PMS_P1;PMS_P2;Temp;Humidity;BMP_temperature;BMP_pressure;BME280_temperature;BME280_humidity;BME280_pressure;Samples;Min_cycle;Max_cycle;Signal;HPM_P1;HPM_P2
2022/01/01 00:01:44;;;;;;;;;17.25;15.00;;;;;14.29;74.54;102272.22;5059960;28;46578;-74
2022/01/01 00:04:09;;;;;;;;;26.25;19.00;;;;;14.19;74.70;102266.25;5064909;28;45657;-75
2022/01/01 00:06:35;;;;;;;;;21.50;15.75;;;;;14.22;74.73;102283.94;5069043;27;46195;-73
2022/01/01 00:09:00;;;;;;;;;16.00;13.50;;;;;14.21;74.94;102287.53;5063294;27;45613;-75
2022/01/01 00:11:25;;;;;;;;;18.25;14.00;;;;;14.18;74.78;102295.59;5069440;27;45421;-73
2022/01/01 00:13:51;;;;;;;;;35.75;30.50;;;;;14.14;74.57;102289.44;5070241;28;45494;-76
2022/01/01 00:16:16;;;;;;;;;27.25;24.75;;;;;14.11;74.98;102293.97;5065458;28;47639;-75
2022/01/01 00:18:42;;;;;;;;;26.00;17.50;;;;;14.01;75.07;102280.88;5060363;28;45303;-76
2022/01/01 00:21:07;;;;;;;;;26.25;24.75;;;;;13.92;75.02;102275.78;5071715;28;45459;-76
2022/01/01 00:23:33;;;;;;;;;17.50;16.50;;;;;14.00;74.75;102303.09;5063506;27;45414;-76
2022/01/01 00:25:59;;;;;;;;;23.00;15.00;;;;;13.96;74.81;102296.09;5064188;28;46121;-73
2022/01/01 00:28:24;;;;;;;;;24.25;20.50;;;;;13.91;74.63;102292.66;5069108;27;45629;-74
2022/01/01 00:30:50;;;;;;;;;18.75;14.75;;;;;13.88;75.07;102302.50;5076880;28;45304;-71
2022/01/01 00:33:15;;;;;;;;;15.25;15.25;;;;;13.81;74.96;102291.13;5075737;27;45632;-72
2022/01/01 00:35:42;;;;;;;;;14.50;13.00;;;;;13.77;74.86;102310.75;5067618;27;46460;-73
2022/01/01 00:38:08;;;;;;;;;14.50;13.50;;;;;13.71;74.86;102311.75;5062754;28;45519;-73
2022/01/01 00:40:34;;;;;;;;;17.25;11.75;;;;;13.51;75.16;102287.38;5068951;27;45807;-74
2022/01/01 00:43:02;;;;;;;;;28.50;24.50;;;;;13.61;75.58;102307.53;5072703;27;45404;-72
2022/01/01 00:45:28;;;;;;;;;12.50;11.75;;;;;13.47;75.97;102288.34;5072733;28;46168;-72
2022/01/01 00:47:53;;;;;;;;;12.00;10.25;;;;;13.57;75.35;102314.72;5068126;27;45453;-75
2022/01/01 00:50:19;;;;;;;;;16.00;11.00;;;;;13.55;75.93;102316.53;5064019;27;46462;-78
2022/01/01 00:52:44;;;;;;;;;27.50;24.25;;;;;13.56;75.75;102310.31;5061330;27;45511;-76
2022/01/01 00:55:10;;;;;;;;;63.25;42.75;;;;;13.55;75.69;102319.19;5063171;27;46666;-78
2022/01/01 00:57:36;;;;;;;;;12.75;9.00;;;;;13.35;75.76;102284.16;5065545;27;45502;-77
2022/01/01 01:00:04;;;;;;;;;42.75;34.00;;;;;13.48;75.98;102306.94;5068235;28;45532;-74
2022/01/01 01:02:31;;;;;;;;;21.00;18.25;;;;;13.51;75.97;102320.16;5067390;27;46528;-78
2022/01/01 01:04:56;;;;;;;;;30.25;23.75;;;;;13.42;76.81;102293.78;5071342;28;45587;-76
2022/01/01 01:07:22;;;;;;;;;162.75;137.50;;;;;13.58;76.97;102299.63;5069675;27;45428;-75
2022/01/01 01:09:47;;;;;;;;;36.00;29.25;;;;;13.25;76.31;102232.06;5069279;28;45420;-73
2022/01/01 01:12:12;;;;;;;;;36.00;28.25;;;;;13.66;76.44;102296.81;5072541;28;45741;-75
2022/01/01 01:14:41;;;;;;;;;85.67;70.67;;;;;13.54;76.29;102272.22;5064720;27;46658;-76
2022/01/01 01:17:08;;;;;;;;;70.50;51.50;;;;;13.51;75.94;102251.00;5065661;27;45443;-75
2022/01/01 01:19:34;;;;;;;;;70.50;53.00;;;;;13.75;76.00;102278.84;5069551;27;45966;-77
2022/01/01 01:21:59;;;;;;;;;302.25;252.75;;;;;13.76;75.61;102288.56;5070089;27;45869;-71
2022/01/01 01:24:25;;;;;;;;;127.50;110.50;;;;;13.68;75.37;102263.03;5069882;28;45444;-77
2022/01/01 01:26:52;;;;;;;;;111.33;91.67;;;;;13.79;75.65;102280.50;5068514;27;45599;-75
2022/01/01 01:29:19;;;;;;;;;25.50;24.25;;;;;13.73;75.33;102270.00;5071085;27;46273;-76
2022/01/01 01:31:45;;;;;;;;;43.50;30.75;;;;;13.67;75.98;102258.63;5067800;27;45518;-76
2022/01/01 01:34:11;;;;;;;;;46.25;31.75;;;;;13.80;75.55;102268.97;5071206;27;45722;-76
2022/01/01 01:36:38;;;;;;;;;70.25;54.50;;;;;13.61;75.62;102247.22;5058029;28;45547;-75
2022/01/01 01:39:03;;;;;;;;;124.00;105.00;;;;;13.66;75.90;102260.44;5068516;28;45824;-79
2022/01/01 01:41:30;;;;;;;;;84.67;73.00;;;;;13.68;75.23;102255.06;5067254;27;45587;-84
2022/01/01 01:43:58;;;;;;;;;75.75;58.50;;;;;13.78;75.58;102284.09;5065627;27;45513;-75
2022/01/01 01:46:25;;;;;;;;;59.75;46.25;;;;;13.76;75.88;102282.38;5066181;27;45643;-76
2022/01/01 01:48:50;;;;;;;;;66.75;48.00;;;;;13.72;75.58;102275.38;5070215;27;46563;-73
2022/01/01 01:51:16;;;;;;;;;31.50;25.00;;;;;13.66;75.03;102270.19;5050041;28;45575;-73
2022/01/01 01:53:41;;;;;;;;;37.50;31.50;;;;;13.76;75.06;102285.03;5067263;27;46084;-76
2022/01/01 01:56:07;;;;;;;;;72.25;52.00;;;;;13.73;75.52;102278.00;5069004;27;45921;-76
2022/01/01 01:58:33;;;;;;;;;94.67;85.00;;;;;13.64;75.47;102272.88;5069973;28;45498;-76
2022/01/01 02:03:29;;;;;;;;;31.25;24.50;;;;;13.69;74.93;102288.75;5069813;28;46589;-75
2022/01/01 02:05:56;;;;;;;;;16.75;14.50;;;;;13.58;75.12;102275.69;5070678;28;45664;-76
2022/01/01 02:08:21;;;;;;;;;19.50;14.50;;;;;13.60;74.99;102296.03;5068291;27;45956;-76
2022/01/01 02:10:51;;;;;;;;;27.50;22.75;;;;;13.55;75.16;102289.06;5067316;27;45547;-72
2022/01/01 02:13:23;;;;;;;;;24.25;24.25;;;;;13.51;75.16;102282.06;5071630;28;45474;-75
2022/01/01 02:16:13;;;;;;;;;55.50;43.25;;;;;13.35;75.67;102260.22;5069899;27;45519;-74
2022/01/01 02:18:34;;;;;;;;;36.50;33.50;;;;;13.47;76.05;102286.56;5067497;27;45617;-74
2022/01/01 02:20:59;;;;;;;;;40.75;33.75;;;;;13.43;75.68;102287.53;5067681;28;45443;-72
2022/01/01 02:23:27;;;;;;;;;31.50;27.75;;;;;13.35;75.72;102285.06;5071164;28;46703;-73
2022/01/01 02:25:56;;;;;;;;;58.75;45.25;;;;;13.27;75.10;102291.44;5066732;28;47069;-75
2022/01/01 02:28:22;;;;;;;;;11.50;10.25;;;;;13.21;75.32;102303.03;5070063;28;45678;-72
2022/01/01 02:30:49;;;;;;;;;49.25;41.75;;;;;13.16;76.03;102294.28;5067762;28;45462;-71
2022/01/01 02:33:15;;;;;;;;;19.25;14.25;;;;;13.22;76.02;102322.53;5053991;28;46909;-73
2022/01/01 02:35:41;;;;;;;;;8.50;7.50;;;;;13.15;76.34;102304.03;5073434;27;45572;-73
2022/01/01 02:38:07;;;;;;;;;32.25;29.25;;;;;13.18;76.07;102279.19;5071248;27;45759;-74
2022/01/01 02:40:32;;;;;;;;;72.50;55.50;;;;;12.98;76.18;102245.03;5071332;28;45507;-73
2022/01/01 02:42:58;;;;;;;;;709.50;543.75;;;;;13.09;76.37;102264.28;5075185;27;46049;-74
2022/01/01 02:45:23;;;;;;;;;30.75;21.50;;;;;13.11;76.16;102266.91;5066538;27;45695;-75
2022/01/01 02:47:49;;;;;;;;;24.25;21.50;;;;;13.15;75.59;102273.94;5066591;28;45475;-71
2022/01/01 02:50:14;;;;;;;;;18.00;16.25;;;;;13.04;76.23;102266.16;5065258;28;45437;-73
2022/01/01 02:52:39;;;;;;;;;20.75;18.25;;;;;13.07;75.89;102265.22;5067050;27;45726;-75
2022/01/01 02:55:06;;;;;;;;;101.00;93.50;;;;;13.04;76.65;102273.25;5066189;27;45698;-74
2022/01/01 02:57:33;;;;;;;;;66.00;52.00;;;;;12.98;76.21;102274.25;5051581;28;45584;-76
2022/01/01 02:59:58;;;;;;;;;37.75;34.00;;;;;12.73;77.02;102239.31;5066747;28;45360;-75
2022/01/01 03:02:24;;;;;;;;;20.00;16.50;;;;;12.90;76.23;102273.53;5064228;28;45846;-74
2022/01/01 03:04:49;;;;;;;;;20.25;19.00;;;;;12.82;76.71;102281.63;5066410;27;45537;-76
2022/01/01 03:07:15;;;;;;;;;21.50;17.75;;;;;12.79;76.72;102275.50;5064372;28;45628;-75
2022/01/01 03:09:40;;;;;;;;;52.50;39.25;;;;;12.64;77.29;102264.25;5069755;28;46950;-70
2022/01/01 03:12:11;;;;;;;;;62.50;47.00;;;;;12.63;77.34;102261.66;5071602;27;45962;-73
2022/01/01 03:14:37;;;;;;;;;357.75;277.75;;;;;12.63;78.11;102259.88;5071248;28;45525;-74
2022/01/01 03:17:04;;;;;;;;;494.25;399.00;;;;;12.80;77.72;102271.97;5067083;28;45394;-71
2022/01/01 03:19:29;;;;;;;;;413.25;305.00;;;;;12.84;77.85;102263.88;5071161;27;45801;-72
2022/01/01 03:21:55;;;;;;;;;551.75;442.75;;;;;12.78;77.67;102248.06;5068073;28;45477;-72
2022/01/01 03:24:20;;;;;;;;;222.50;189.50;;;;;12.93;78.28;102262.84;5072408;28;45280;-72
2022/01/01 03:26:46;;;;;;;;;192.50;168.25;;;;;12.98;78.04;102253.00;5069754;28;45469;-70
2022/01/01 03:29:11;;;;;;;;;81.75;56.50;;;;;12.81;77.25;102229.41;5073066;28;45513;-72
2022/01/01 03:31:36;;;;;;;;;78.00;59.25;;;;;12.85;77.86;102232.88;5075395;28;45614;-76
2022/01/01 03:34:03;;;;;;;;;45.50;34.50;;;;;12.89;77.38;102231.94;5077989;27;45411;-76
2022/01/01 03:36:28;;;;;;;;;33.75;27.00;;;;;13.04;77.28;102244.03;5069275;28;45473;-74
2022/01/01 03:38:55;;;;;;;;;24.00;21.00;;;;;13.03;76.65;102242.25;5067485;28;45579;-74
2022/01/01 03:41:20;;;;;;;;;20.25;17.75;;;;;12.84;77.35;102223.16;5063643;28;46240;-74
2022/01/01 03:43:47;;;;;;;;;25.00;21.75;;;;;12.90;77.44;102261.13;5063152;28;45458;-74
2022/01/01 03:46:12;;;;;;;;;28.50;20.75;;;;;12.60;76.98;102229.84;5062428;28;45474;-76
2022/01/01 03:48:38;;;;;;;;;20.25;16.25;;;;;12.64;77.33;102271.34;5072147;28;45460;-76
2022/01/01 03:51:03;;;;;;;;;28.00;27.00;;;;;12.70;77.47;102288.06;5046905;28;46764;-76
2022/01/01 03:53:28;;;;;;;;;26.25;25.00;;;;;12.59;77.59;102279.44;5064764;28;45530;-73
2022/01/01 03:55:54;;;;;;;;;26.50;26.00;;;;;12.68;77.95;102283.69;5064271;27;45710;-75
2022/01/01 03:58:20;;;;;;;;;32.75;27.75;;;;;12.50;77.92;102256.56;5065336;28;45642;-76
2022/01/01 04:00:45;;;;;;;;;34.75;30.75;;;;;12.61;78.11;102271.41;5067159;28;46006;-75
2022/01/01 04:03:12;;;;;;;;;23.50;23.50;;;;;12.65;78.12;102266.03;5065055;28;45583;-77
2022/01/01 04:05:42;;;;;;;;;38.00;30.75;;;;;12.57;78.19;102253.81;5064098;28;45492;-75
2022/01/01 04:08:09;;;;;;;;;31.75;28.75;;;;;12.64;78.45;102264.25;5063839;27;45558;-73
2022/01/01 04:10:35;;;;;;;;;31.50;29.25;;;;;12.58;78.60;102258.19;5064590;28;45872;-75
2022/01/01 04:13:03;;;;;;;;;31.00;29.50;;;;;12.63;78.62;102267.84;5071351;28;45463;-75
2022/01/01 04:15:29;;;;;;;;;33.75;29.25;;;;;12.49;78.01;102232.69;5071089;27;45506;-74
2022/01/01 04:18:00;;;;;;;;;29.00;28.00;;;;;12.63;78.23;102261.66;5062785;28;45862;-74
2022/01/01 04:20:26;;;;;;;;;30.25;23.50;;;;;12.64;78.12;102260.75;5067680;28;45436;-74
2022/01/01 04:22:53;;;;;;;;;29.00;24.00;;;;;12.49;78.73;102230.91;5071321;28;45651;-73
2022/01/01 04:25:20;;;;;;;;;23.75;19.25;;;;;12.63;78.74;102261.66;5065025;28;45510;-72
2022/01/01 04:27:46;;;;;;;;;28.50;26.25;;;;;12.60;78.92;102253.75;5064275;28;45535;-73
2022/01/01 04:30:12;;;;;;;;;33.00;24.50;;;;;12.62;78.87;102270.53;5066949;28;45478;-72
2022/01/01 04:32:38;;;;;;;;;33.75;29.25;;;;;12.59;79.33;102262.59;5067921;28;45682;-71
2022/01/01 04:35:04;;;;;;;;;29.50;25.00;;;;;12.58;79.24;102253.75;5069183;28;45531;-74
2022/01/01 04:37:30;;;;;;;;;24.00;21.00;;;;;12.60;78.85;102259.06;5069812;28;45578;-73
2022/01/01 04:39:59;;;;;;;;;19.50;14.25;;;;;12.57;78.90;102254.66;5067899;28;45553;-72
2022/01/01 04:42:27;;;;;;;;;38.25;28.75;;;;;12.57;79.43;102273.25;5073309;27;45473;-74
2022/01/01 04:44:53;;;;;;;;;34.75;27.00;;;;;12.56;79.47;102270.63;5071504;28;45368;-74
2022/01/01 04:47:18;;;;;;;;;37.00;26.25;;;;;12.55;79.82;102267.09;5067567;27;45513;-74
2022/01/01 04:49:44;;;;;;;;;28.75;24.00;;;;;12.57;79.19;102267.94;5070087;28;46305;-73
2022/01/01 04:52:09;;;;;;;;;32.75;28.50;;;;;12.54;79.89;102273.31;5067131;28;45547;-73
2022/01/01 04:54:39;;;;;;;;;30.50;27.50;;;;;12.50;79.71;102282.25;5054824;28;45509;-73
2022/01/01 04:57:05;;;;;;;;;28.00;23.25;;;;;12.52;79.76;102271.59;5063008;28;45328;-74
2022/01/01 04:59:30;;;;;;;;;29.00;23.75;;;;;12.49;79.83;102276.03;5070856;28;45443;-72
2022/01/01 05:01:55;;;;;;;;;37.50;31.25;;;;;12.42;80.58;102286.81;5069193;28;45551;-72
2022/01/01 05:04:21;;;;;;;;;26.00;23.50;;;;;12.33;80.26;102277.22;5069665;28;45526;-72
2022/01/01 05:06:49;;;;;;;;;31.75;24.25;;;;;12.28;80.93;102258.72;5069708;28;45484;-74
2022/01/01 05:09:15;;;;;;;;;30.50;24.25;;;;;12.38;80.96;102271.81;5073132;27;45742;-73
2022/01/01 05:11:40;;;;;;;;;35.25;26.50;;;;;12.27;80.51;102251.66;5071315;28;45489;-72
2022/01/01 05:14:06;;;;;;;;;27.50;27.25;;;;;12.23;81.58;102244.63;5071559;28;45860;-73
2022/01/01 05:16:31;;;;;;;;;34.75;27.25;;;;;12.40;81.23;102278.00;5074421;28;45352;-72
2022/01/01 05:18:57;;;;;;;;;34.75;29.25;;;;;12.33;80.66;102260.44;5071712;27;45654;-69
2022/01/01 05:21:22;;;;;;;;;33.25;26.00;;;;;12.24;80.70;102250.84;5076659;28;45458;-70
2022/01/01 05:23:47;;;;;;;;;23.25;22.00;;;;;12.38;81.08;102274.47;5074093;28;45420;-70
2022/01/01 05:26:13;;;;;;;;;28.00;24.00;;;;;12.28;81.11;102257.84;5074956;28;45873;-70
2022/01/01 05:28:38;;;;;;;;;26.50;21.00;;;;;12.40;81.16;102272.69;5074921;28;45386;-71
2022/01/01 05:31:04;;;;;;;;;27.00;24.00;;;;;12.41;80.92;102274.41;5074314;27;45459;-72
2022/01/01 05:33:30;;;;;;;;;30.00;25.50;;;;;12.37;80.69;102273.59;5076973;27;45501;-69
2022/01/01 05:35:55;;;;;;;;;34.00;27.25;;;;;12.42;80.81;102289.47;5075350;27;45495;-69
2022/01/01 05:38:20;;;;;;;;;27.00;26.00;;;;;12.42;81.46;102281.50;5074621;28;45498;-70
2022/01/01 05:40:46;;;;;;;;;30.00;23.50;;;;;12.28;81.13;102255.19;5073370;28;46816;-70
2022/01/01 05:43:13;;;;;;;;;24.25;22.50;;;;;12.46;81.24;102276.09;5075035;28;46256;-69
2022/01/01 05:45:42;;;;;;;;;27.75;24.25;;;;;12.49;81.11;102281.34;5076392;27;45770;-69
2022/01/01 05:48:07;;;;;;;;;31.50;26.75;;;;;12.52;80.89;102272.47;5074467;28;46472;-69
2022/01/01 05:50:33;;;;;;;;;31.25;25.00;;;;;12.52;80.94;102269.81;5073133;28;45478;-69
2022/01/01 05:52:59;;;;;;;;;25.00;23.75;;;;;12.50;80.94;102258.34;5075059;28;45230;-69
2022/01/01 05:55:24;;;;;;;;;31.25;25.25;;;;;12.51;81.03;102262.75;5074618;28;45361;-70
2022/01/01 05:57:49;;;;;;;;;28.50;22.00;;;;;12.46;81.09;102244.22;5075148;27;45912;-69
2022/01/01 06:00:15;;;;;;;;;24.75;22.50;;;;;12.49;81.51;102252.13;5075660;28;45316;-70
2022/01/01 06:02:41;;;;;;;;;28.75;26.00;;;;;12.53;81.23;102262.72;5073276;28;45353;-70
2022/01/01 06:05:06;;;;;;;;;28.75;27.00;;;;;12.32;81.90;102235.63;5074811;28;45409;-70
2022/01/01 06:07:32;;;;;;;;;27.25;22.25;;;;;12.52;81.25;102267.16;5074485;28;45383;-70
2022/01/01 06:09:58;;;;;;;;;24.00;19.25;;;;;12.49;81.62;102252.13;5074155;28;45435;-70
2022/01/01 06:12:23;;;;;;;;;22.75;22.25;;;;;12.59;81.01;102258.19;5076036;28;45459;-70
2022/01/01 06:14:48;;;;;;;;;28.25;17.25;;;;;12.35;81.51;102205.50;5073450;28;45454;-70
2022/01/01 06:17:13;;;;;;;;;28.00;16.75;;;;;12.61;81.52;102240.41;5073856;27;46045;-70
2022/01/01 06:19:39;;;;;;;;;21.50;20.25;;;;;12.27;81.02;102185.31;5074038;28;45753;-70
2022/01/01 06:22:04;;;;;;;;;22.00;19.75;;;;;12.64;81.62;102237.69;5074666;28;45463;-70
2022/01/01 06:24:30;;;;;;;;;23.00;14.75;;;;;12.62;81.58;102228.03;5067682;27;45339;-71
2022/01/01 06:26:55;;;;;;;;;22.00;21.00;;;;;12.57;81.75;102221.94;5074531;27;46028;-70
2022/01/01 06:29:20;;;;;;;;;23.75;21.00;;;;;12.65;81.27;102236.81;5072540;28;45359;-70
2022/01/01 06:31:46;;;;;;;;;32.75;23.50;;;;;12.58;81.13;102224.53;5074986;28;45499;-70
2022/01/01 06:34:11;;;;;;;;;23.75;23.00;;;;;12.57;81.29;102216.63;5094720;27;45604;-70
2022/01/01 06:36:36;;;;;;;;;28.75;19.50;;;;;12.12;81.54;102129.84;5080122;27;46008;-70
2022/01/01 06:39:03;;;;;;;;;27.00;18.25;;;;;12.63;81.30;102222.69;5067036;27;45283;-70
2022/01/01 06:41:28;;;;;;;;;20.00;15.50;;;;;12.65;81.30;102226.19;5065549;28;45321;-70
2022/01/01 06:43:53;;;;;;;;;26.50;20.50;;;;;12.61;81.27;102224.47;5073884;28;45421;-70
2022/01/01 06:46:19;;;;;;;;;29.00;20.00;;;;;12.45;80.74;102194.69;5073635;27;46083;-69
2022/01/01 06:48:44;;;;;;;;;27.75;22.50;;;;;12.59;81.15;102215.69;5054582;28;45321;-69
2022/01/01 06:51:10;;;;;;;;;29.75;20.00;;;;;12.62;81.21;102226.25;5073001;27;45710;-69
2022/01/01 06:53:35;;;;;;;;;22.75;19.00;;;;;12.36;80.94;102175.41;5073866;28;45479;-69
2022/01/01 06:56:05;;;;;;;;;24.75;23.00;;;;;12.71;81.15;102234.03;5073680;28;46308;-70
2022/01/01 06:58:31;;;;;;;;;23.25;19.50;;;;;12.53;80.86;102222.88;5073526;28;45375;-69
2022/01/01 07:00:56;;;;;;;;;25.25;21.50;;;;;12.52;80.81;102219.34;5073549;28;46737;-69
2022/01/01 07:03:24;;;;;;;;;31.50;21.25;;;;;12.42;80.58;102199.19;5076407;28;45230;-69
2022/01/01 07:05:50;;;;;;;;;24.25;22.75;;;;;12.66;81.09;102246.53;5073681;28;45980;-69
2022/01/01 07:08:16;;;;;;;;;18.75;17.75;;;;;12.65;80.99;102244.78;5071720;28;45404;-69
2022/01/01 07:10:44;;;;;;;;;32.75;22.00;;;;;12.69;80.45;102249.13;5073675;28;45383;-69
2022/01/01 07:13:13;;;;;;;;;30.00;20.25;;;;;12.59;80.66;102228.97;5073531;28;45423;-69
2022/01/01 07:15:38;;;;;;;;;32.50;29.25;;;;;12.67;80.78;102242.94;5075521;28;46195;-69
2022/01/01 07:18:03;;;;;;;;;28.50;23.75;;;;;12.58;80.67;102223.66;5071927;27;45260;-70
2022/01/01 07:20:29;;;;;;;;;34.75;29.50;;;;;12.64;80.57;102235.03;5071900;27;45248;-69
2022/01/01 07:22:54;;;;;;;;;29.00;23.50;;;;;12.47;81.32;102206.19;5073625;28;45384;-69
2022/01/01 07:25:20;;;;;;;;;30.25;27.00;;;;;12.61;80.78;102234.22;5072958;27;45510;-69
2022/01/01 07:27:45;;;;;;;;;34.00;27.75;;;;;12.45;80.81;102210.63;5074723;28;45339;-69
2022/01/01 07:30:11;;;;;;;;;29.50;29.50;;;;;12.60;80.85;102240.47;5073904;28;45425;-69
2022/01/01 07:32:41;;;;;;;;;33.00;27.75;;;;;12.60;80.91;102249.31;5072837;27;45605;-69
2022/01/01 07:35:07;;;;;;;;;27.75;27.25;;;;;12.49;81.29;102244.19;5072682;28;46153;-69
2022/01/01 07:37:32;;;;;;;;;36.25;28.00;;;;;12.37;81.22;102223.16;5072899;28;45561;-69
2022/01/01 07:39:58;;;;;;;;;34.75;26.25;;;;;12.52;81.11;102247.69;5054710;28;45661;-70
2022/01/01 07:42:23;;;;;;;;;31.00;28.75;;;;;12.31;80.91;102214.44;5075268;28;45409;-70
2022/01/01 07:44:49;;;;;;;;;27.50;26.00;;;;;12.34;81.05;102220.56;5072987;28;45349;-70
2022/01/01 07:47:14;;;;;;;;;36.00;32.00;;;;;12.56;81.45;102258.25;5071055;28;45459;-70
2022/01/01 07:49:39;;;;;;;;;35.50;27.25;;;;;12.50;81.15;102253.03;5072638;27;47331;-69
2022/01/01 07:52:05;;;;;;;;;26.25;23.75;;;;;12.52;81.34;102258.31;5072830;27;45399;-70
2022/01/01 07:54:30;;;;;;;;;25.00;23.50;;;;;12.38;81.13;102235.56;5075073;27;45553;-69
2022/01/01 07:56:55;;;;;;;;;23.00;21.50;;;;;12.49;81.46;102251.28;5060223;28;45518;-70
2022/01/01 07:59:21;;;;;;;;;31.50;27.75;;;;;12.50;81.02;102253.03;5071877;28;45285;-69
2022/01/01 08:01:46;;;;;;;;;26.75;25.50;;;;;12.21;81.31;102201.34;5072842;28;45474;-70
2022/01/01 08:04:12;;;;;;;;;28.50;25.00;;;;;12.49;81.11;102253.94;5072937;28;46178;-69
2022/01/01 08:06:37;;;;;;;;;31.25;30.00;;;;;12.52;81.34;102250.34;5074900;28;45458;-69
2022/01/01 08:09:03;;;;;;;;;33.75;31.75;;;;;12.40;81.13;102223.09;5072736;27;45769;-69
2022/01/01 08:11:29;;;;;;;;;38.00;30.50;;;;;12.50;81.40;102245.94;5072637;28;45364;-70
2022/01/01 08:13:54;;;;;;;;;23.25;19.00;;;;;12.17;80.98;102186.34;5072625;28;45427;-70
2022/01/01 08:16:21;;;;;;;;;25.75;23.25;;;;;12.45;80.69;102246.94;5072565;28;45451;-70
2022/01/01 08:18:46;;;;;;;;;26.25;21.50;;;;;12.49;80.88;102254.78;5074036;28;45359;-70
2022/01/01 08:21:12;;;;;;;;;25.75;23.50;;;;;12.39;80.57;102225.81;5072888;27;45516;-70
2022/01/01 08:23:37;;;;;;;;;26.25;20.50;;;;;12.50;80.89;102251.25;5072491;28;45465;-70
2022/01/01 08:26:03;;;;;;;;;28.75;20.50;;;;;12.52;80.96;102245.91;5070651;28;45631;-70
2022/01/01 08:28:28;;;;;;;;;26.50;21.50;;;;;12.50;80.93;102248.59;5073251;28;45403;-71
2022/01/01 08:30:54;;;;;;;;;37.50;25.50;;;;;12.54;80.53;102256.50;5072196;28;45316;-70
2022/01/01 08:33:20;;;;;;;;;25.25;20.75;;;;;12.54;80.79;102260.03;5074430;28;46361;-70
2022/01/01 08:35:46;;;;;;;;;29.50;22.25;;;;;12.45;81.26;102234.53;5072249;27;45490;-71
2022/01/01 08:38:13;;;;;;;;;28.00;24.75;;;;;12.36;80.78;102231.19;5070813;27;45310;-70
2022/01/01 08:40:39;;;;;;;;;28.25;23.00;;;;;12.51;81.10;102244.16;5072928;28;45384;-70
2022/01/01 08:43:04;;;;;;;;;18.00;18.00;;;;;12.48;80.92;102244.22;5072313;28;46311;-70
2022/01/01 08:45:30;;;;;;;;;26.50;22.00;;;;;12.49;80.83;102235.34;5073956;28;45417;-70
2022/01/01 08:47:55;;;;;;;;;45.25;26.25;;;;;12.33;81.23;102194.06;5072745;28;45261;-70
2022/01/01 08:50:20;;;;;;;;;25.75;19.50;;;;;12.54;81.13;102219.34;5069205;28;45267;-69
2022/01/01 08:52:45;;;;;;;;;22.75;17.75;;;;;12.55;81.17;102211.31;5071934;28;46549;-69
2022/01/01 08:55:11;;;;;;;;;19.75;19.75;;;;;12.46;81.06;102200.88;5072274;27;45291;-69
2022/01/01 08:57:37;;;;;;;;;20.00;18.50;;;;;12.55;80.71;102200.69;5074500;28;45284;-69
2022/01/01 09:00:09;;;;;;;;;26.50;23.75;;;;;12.50;80.67;102203.47;5072119;28;45572;-69
2022/01/01 09:02:34;;;;;;;;;28.00;20.75;;;;;12.52;80.71;102194.59;5075087;28;46293;-69
2022/01/01 09:05:00;;;;;;;;;22.25;20.00;;;;;12.49;80.97;102196.38;5073774;28;45375;-69
2022/01/01 09:07:28;;;;;;;;;20.00;15.50;;;;;12.52;80.91;102192.78;5075779;28;45584;-70
2022/01/01 09:10:04;;;;;;;;;35.25;25.50;;;;;12.46;80.69;102169.88;5075761;27;45496;-70
2022/01/01 09:12:30;;;;;;;;;28.25;21.50;;;;;12.46;80.70;102164.56;5077096;27;45445;-70
2022/01/01 09:14:56;;;;;;;;;24.00;20.50;;;;;12.58;81.03;102181.19;5075228;28;45440;-69
2022/01/01 09:17:22;;;;;;;;;25.50;21.50;;;;;12.56;80.63;102175.91;5075426;27;45511;-70
2022/01/01 09:19:48;;;;;;;;;25.25;23.50;;;;;12.50;80.52;102173.38;5075429;28;45470;-70
2022/01/01 09:22:14;;;;;;;;;30.25;23.00;;;;;12.52;80.84;102170.69;5074225;27;45641;-70
2022/01/01 09:24:39;;;;;;;;;28.00;20.25;;;;;12.60;80.90;102201.50;5055034;28;45415;-70
2022/01/01 09:27:05;;;;;;;;;24.50;22.00;;;;;12.61;81.14;102199.72;5075095;27;45744;-70
2022/01/01 09:29:31;;;;;;;;;29.00;20.50;;;;;12.56;80.86;102197.16;5075363;28;45312;-70
2022/01/01 09:31:56;;;;;;;;;18.00;16.00;;;;;12.60;80.40;102200.63;5074112;27;46253;-70
2022/01/01 09:34:22;;;;;;;;;20.00;18.25;;;;;12.63;81.05;102204.09;5074914;27;45332;-70
2022/01/01 09:36:49;;;;;;;;;19.00;17.00;;;;;12.61;80.57;102197.06;5075596;27;45386;-72
2022/01/01 09:39:16;;;;;;;;;16.75;16.25;;;;;12.59;80.76;102202.41;5079794;27;45466;-72
2022/01/01 09:41:42;;;;;;;;;20.75;19.50;;;;;12.66;80.30;102216.44;5074856;28;46204;-72
2022/01/01 09:44:13;;;;;;;;;26.75;17.75;;;;;12.52;80.50;102195.44;5075609;28;45490;-72
2022/01/01 09:46:44;;;;;;;;;18.00;18.00;;;;;12.52;80.18;102183.97;5074746;28;45443;-71
2022/01/01 09:49:14;;;;;;;;;22.00;18.25;;;;;12.73;79.98;102210.09;5058883;28;45442;-71
2022/01/01 09:51:44;;;;;;;;;27.25;16.50;;;;;12.65;80.65;102194.31;5076244;27;47074;-72
2022/01/01 09:54:10;;;;;;;;;24.25;20.00;;;;;12.79;80.17;102202.00;5075262;28;45364;-71
2022/01/01 09:56:36;;;;;;;;;16.25;16.25;;;;;12.67;80.37;102176.56;5074509;27;45629;-71
2022/01/01 09:59:01;;;;;;;;;19.50;13.50;;;;;12.78;80.67;102200.25;5076257;27;45543;-70
2022/01/01 10:01:26;;;;;;;;;14.75;12.00;;;;;12.72;79.90;102190.63;5068596;28;47868;-70
2022/01/01 10:03:53;;;;;;;;;17.25;15.75;;;;;12.77;80.28;102192.34;5074734;27;45608;-70
2022/01/01 10:06:21;;;;;;;;;21.75;17.00;;;;;12.81;80.28;102192.22;5055211;28;45519;-70
2022/01/01 10:08:48;;;;;;;;;27.00;19.75;;;;;12.81;80.35;102194.00;5073387;28;45358;-70
2022/01/01 10:11:18;;;;;;;;;20.25;14.00;;;;;12.54;80.08;102148.50;5072970;28;45430;-70
2022/01/01 10:13:44;;;;;;;;;20.75;17.25;;;;;12.83;80.09;102200.19;5073394;27;45486;-70
2022/01/01 10:16:11;;;;;;;;;19.25;15.25;;;;;12.88;80.11;102199.19;5073967;27;45637;-70
2022/01/01 10:18:39;;;;;;;;;14.75;10.75;;;;;12.67;80.31;102157.09;5076487;28;45387;-70
2022/01/01 10:21:04;;;;;;;;;28.00;18.50;;;;;12.95;80.34;102199.91;5074371;28;46157;-70
2022/01/01 10:23:31;;;;;;;;;19.75;16.50;;;;;12.94;80.05;102196.38;5072876;28;45455;-70
2022/01/01 10:29:28;;;;;;;;;24.25;17.50;;;;;12.96;80.00;102196.34;5046128;28;45648;-70
2022/01/01 10:31:58;;;;;;;;;19.25;14.00;;;;;12.95;79.68;102187.50;5045342;28;45567;-70
2022/01/01 10:34:42;;;;;;;;;19.00;14.00;;;;;12.89;79.62;102165.50;5051925;28;45643;-69
2022/01/01 10:37:08;;;;;;;;;13.50;12.00;;;;;12.86;79.70;102155.81;5055722;28;45646;-69
2022/01/01 10:39:47;;;;;;;;;19.00;17.00;;;;;12.91;79.79;102166.31;5073904;27;45573;-69
2022/01/01 10:42:13;;;;;;;;;19.75;15.50;;;;;13.03;79.94;102178.47;5074376;27;46042;-70
2022/01/01 10:44:38;;;;;;;;;19.75;16.25;;;;;12.94;79.78;102156.53;5070903;28;45506;-70
2022/01/01 10:47:06;;;;;;;;;22.50;18.75;;;;;13.03;79.46;102183.78;5069682;28;46798;-70
2022/01/01 10:52:24;;;;;;;;;18.75;14.25;;;;;13.01;79.52;102183.84;5072916;28;46413;-70
2022/01/01 10:54:51;;;;;;;;;18.50;13.00;;;;;13.11;79.83;102196.00;5073255;28;45375;-70
2022/01/01 10:57:23;;;;;;;;;18.50;12.25;;;;;13.05;79.98;102168.69;5073561;28;45391;-70
2022/01/01 11:00:13;;;;;;;;;17.25;16.00;;;;;13.15;79.45;102167.59;5072470;28;45633;-70
2022/01/01 11:02:48;;;;;;;;;16.25;14.50;;;;;13.33;79.40;102179.63;5070114;28;45486;-69
2022/01/01 11:05:14;;;;;;;;;18.50;15.50;;;;;13.39;79.21;102168.84;5072649;28;45372;-69
2022/01/01 11:07:49;;;;;;;;;13.00;9.00;;;;;13.25;78.86;102139.03;5072735;27;45432;-69
2022/01/01 11:10:15;;;;;;;;;14.00;13.50;;;;;13.46;79.52;102161.59;5068774;27;46546;-69
2022/01/01 11:12:41;;;;;;;;;23.50;15.50;;;;;13.63;78.99;102178.91;5065581;28;45436;-69
2022/01/01 11:15:09;;;;;;;;;13.25;12.50;;;;;13.74;78.52;102170.66;5071934;28;45388;-70